createdAt,value
2022-09-29T00:03:11.958Z,4.25
2022-09-29T00:07:29.656Z,4.53
2022-09-29T00:11:45.633Z,4.75
2022-09-29T00:16:03.308Z,4.20
2022-09-29T00:20:19.757Z,4.82
2022-09-29T00:24:35.744Z,6.05
2022-09-29T00:28:54.126Z,4.43
2022-09-29T00:33:10.061Z,4.78
2022-09-29T00:37:26.203Z,5.22
2022-09-29T00:41:43.010Z,5.37
2022-09-29T00:45:59.050Z,5.45
2022-09-29T00:50:26.511Z,4.85
2022-09-29T00:54:53.224Z,4.87
2022-09-29T00:59:13.460Z,5.00
2022-09-29T01:03:38.691Z,4.85
2022-09-29T01:07:54.815Z,5.20
2022-09-29T01:12:10.783Z,5.15
2022-09-29T01:16:26.877Z,5.15
2022-09-29T01:20:53.281Z,5.28
2022-09-29T01:25:15.167Z,5.20
2022-09-29T01:29:55.920Z,5.50
2022-09-29T01:34:24.113Z,5.45
2022-09-29T01:38:43.757Z,5.30
2022-09-29T01:43:09.454Z,6.40
2022-09-29T01:47:28.551Z,5.65
2022-09-29T01:52:08.208Z,5.93
2022-09-29T01:56:33.898Z,5.65
2022-09-29T02:00:55.096Z,5.72
2022-09-29T02:05:40.269Z,5.22
2022-09-29T02:10:04.790Z,6.18
2022-09-29T02:14:28.877Z,5.80
2022-09-29T02:18:58.900Z,6.45
2022-09-29T02:23:14.919Z,6.03
2022-09-29T02:27:33.571Z,5.50
2022-09-29T02:31:50.143Z,5.37
2022-09-29T02:36:18.905Z,6.30
2022-09-29T02:40:47.211Z,5.78
2022-09-29T02:45:21.302Z,5.47
2022-09-29T02:49:54.075Z,5.50
2022-09-29T02:54:13.160Z,5.67
2022-09-29T02:58:48.279Z,5.97
2022-09-29T03:03:04.515Z,5.82
2022-09-29T03:07:21.495Z,6.18
2022-09-29T03:11:37.539Z,5.82
2022-09-29T03:15:53.519Z,5.80
2022-09-29T03:20:09.972Z,6.53
2022-09-29T03:24:26.638Z,6.22
2022-09-29T03:28:43.044Z,6.60
2022-09-29T03:32:59.140Z,7.07
2022-09-29T03:37:15.147Z,6.72
2022-09-29T03:41:31.144Z,6.90
2022-09-29T03:45:54.607Z,7.00
2022-09-29T03:54:27.820Z,6.37
2022-09-29T03:58:43.838Z,6.20
2022-09-29T04:02:59.812Z,7.00
2022-09-29T04:07:15.746Z,7.55
2022-09-29T04:11:31.711Z,6.45
2022-09-29T04:15:50.711Z,6.82
2022-09-29T04:20:08.008Z,7.05
2022-09-29T04:24:23.930Z,7.07
2022-09-29T04:28:40.898Z,6.82
2022-09-29T04:32:57.093Z,6.87
2022-09-29T04:37:13.092Z,8.02
2022-09-29T04:41:29.101Z,7.47
2022-09-29T04:45:45.401Z,7.45
2022-09-29T04:50:01.557Z,7.12
2022-09-29T04:54:17.915Z,7.60
2022-09-29T04:58:34.306Z,7.80
2022-09-29T05:02:50.302Z,7.03
2022-09-29T05:07:06.305Z,6.95
2022-09-29T05:11:22.252Z,6.90
2022-09-29T05:15:38.203Z,7.05
2022-09-29T05:19:54.179Z,6.93
2022-09-29T05:24:10.188Z,7.45
2022-09-29T05:28:26.250Z,8.13
2022-09-29T05:32:44.718Z,11.23
2022-09-29T05:37:00.764Z,9.73
2022-09-29T05:41:18.999Z,8.38
2022-09-29T05:45:35.058Z,5.50
2022-09-29T05:49:51.081Z,3.30
2022-09-29T05:54:07.186Z,2.75
2022-09-29T05:58:23.270Z,2.20
2022-09-29T06:02:39.354Z,2.08
2022-09-29T06:06:56.527Z,2.10
2022-09-29T06:11:20.914Z,1.90
2022-09-29T06:15:37.934Z,3.28
2022-09-29T06:19:53.978Z,2.25
2022-09-29T06:24:10.034Z,2.33
2022-09-29T06:28:26.304Z,1.77
2022-09-29T06:32:42.317Z,2.40
2022-09-29T06:37:36.705Z,2.33
2022-09-29T06:41:54.517Z,2.50
2022-09-29T06:46:10.601Z,2.30
2022-09-29T06:50:26.779Z,1.50
2022-09-29T06:54:42.806Z,1.73
2022-09-29T06:58:58.839Z,1.75
2022-09-29T07:03:15.106Z,1.80
2022-09-29T07:07:31.094Z,1.77
2022-09-29T07:11:49.334Z,1.65
2022-09-29T07:16:11.873Z,1.60
2022-09-29T07:20:29.146Z,1.73
2022-09-29T07:24:45.418Z,1.60
2022-09-29T07:29:01.326Z,1.62
2022-09-29T07:33:18.493Z,1.70
2022-09-29T07:37:36.350Z,1.60
2022-09-29T07:41:52.378Z,1.50
2022-09-29T07:46:09.350Z,1.70
2022-09-29T07:50:26.067Z,1.62
2022-09-29T07:54:42.008Z,1.40
2022-09-29T07:58:58.236Z,1.50
2022-09-29T08:03:14.203Z,1.40
2022-09-29T08:07:30.235Z,1.50
2022-09-29T08:11:46.603Z,1.40
2022-09-29T08:16:05.389Z,1.37
2022-09-29T08:20:22.654Z,1.37
2022-09-29T08:24:40.325Z,1.80
2022-09-29T08:29:06.957Z,1.30
2022-09-29T08:33:24.149Z,1.40
2022-09-29T08:37:40.080Z,1.75
2022-09-29T08:42:03.869Z,1.80
2022-09-29T08:46:36.093Z,1.60
2022-09-29T08:51:07.538Z,1.50
2022-09-29T08:55:43.883Z,1.40
2022-09-29T09:00:01.130Z,2.17
2022-09-29T09:04:32.339Z,1.92
2022-09-29T09:09:10.013Z,1.70
2022-09-29T09:13:47.171Z,1.40
2022-09-29T09:18:24.972Z,1.95
2022-09-29T09:23:01.064Z,1.80
2022-09-29T09:27:23.145Z,1.48
2022-09-29T09:31:57.774Z,1.40
2022-09-29T09:36:33.037Z,1.70
2022-09-29T09:40:53.049Z,1.65
2022-09-29T09:45:13.821Z,1.50
2022-09-29T09:49:40.962Z,1.40
2022-09-29T09:53:59.560Z,1.42
2022-09-29T09:58:33.787Z,1.40
2022-09-29T10:02:55.365Z,1.60
2022-09-29T10:07:11.448Z,1.30
2022-09-29T10:11:34.440Z,1.20
2022-09-29T10:15:58.353Z,1.20
2022-09-29T10:20:28.503Z,1.10
2022-09-29T10:24:44.527Z,1.17
2022-09-29T10:29:04.180Z,1.50
2022-09-29T10:33:21.546Z,1.30
2022-09-29T10:37:46.503Z,1.37
2022-09-29T10:42:02.923Z,1.20
2022-09-29T10:46:38.801Z,0.98
2022-09-29T10:55:28.885Z,1.10
2022-09-29T10:59:53.591Z,1.27
2022-09-29T11:04:24.433Z,1.42
2022-09-29T11:09:08.057Z,1.10
2022-09-29T11:17:48.941Z,1.02
2022-09-29T11:22:13.663Z,1.33
2022-09-29T11:26:53.111Z,1.27
2022-09-29T11:31:19.733Z,1.33
2022-09-29T11:35:54.182Z,1.50
2022-09-29T11:40:45.531Z,1.30
2022-09-29T11:45:15.324Z,1.40
2022-09-29T11:49:56.132Z,1.70
2022-09-29T11:54:23.960Z,1.65
2022-09-29T11:58:53.072Z,1.20
2022-09-29T12:03:17.589Z,1.45
2022-09-29T12:07:46.146Z,1.58
2022-09-29T12:12:24.555Z,1.37
2022-09-29T12:17:09.260Z,1.40
2022-09-29T12:21:41.237Z,1.60
2022-09-29T12:26:08.456Z,1.52
2022-09-29T12:30:30.364Z,1.33
2022-09-29T12:34:54.437Z,1.30
2022-09-29T12:39:20.041Z,1.40
2022-09-29T12:43:46.046Z,1.62
2022-09-29T12:48:35.413Z,1.50
2022-09-29T12:52:51.608Z,1.30
2022-09-29T12:57:10.473Z,1.25
2022-09-29T13:01:29.107Z,1.50
2022-09-29T13:05:57.022Z,1.40
2022-09-29T13:10:24.867Z,1.40
2022-09-29T13:14:49.771Z,1.30
2022-09-29T13:19:58.929Z,1.15
2022-09-29T13:24:44.152Z,1.40
2022-09-29T13:29:23.945Z,1.30
2022-09-29T13:33:40.162Z,1.35
2022-09-29T13:38:02.200Z,1.15
2022-09-29T13:42:37.324Z,1.30
2022-09-29T13:46:56.158Z,0.98
2022-09-29T13:51:28.412Z,1.10
2022-09-29T13:55:54.619Z,0.90
2022-09-29T14:00:19.089Z,0.80
2022-09-29T14:04:41.024Z,1.02
2022-09-29T14:09:01.206Z,1.15
2022-09-29T14:13:55.674Z,1.10
2022-09-29T14:18:27.020Z,1.10
2022-09-29T14:22:57.310Z,1.05
2022-09-29T14:27:26.046Z,1.20
2022-09-29T14:31:45.576Z,1.30
2022-09-29T14:36:01.701Z,1.20
2022-09-29T14:40:31.067Z,1.52
2022-09-29T14:45:05.523Z,1.30
2022-09-29T14:49:58.106Z,1.27
2022-09-29T14:54:43.367Z,1.30
2022-09-29T14:59:35.737Z,1.05
2022-09-29T15:03:52.957Z,1.05
2022-09-29T15:08:29.866Z,1.12
2022-09-29T15:12:47.876Z,1.23
2022-09-29T15:17:25.534Z,1.10
2022-09-29T15:21:57.809Z,1.30
2022-09-29T15:26:18.102Z,1.10
2022-09-29T15:30:35.252Z,3.80
2022-09-29T15:34:56.049Z,2.10
2022-09-29T15:39:33.242Z,1.37
2022-09-29T15:44:18.371Z,2.37
2022-09-29T15:48:34.701Z,1.70
2022-09-29T15:52:53.337Z,1.65
2022-09-29T15:57:43.691Z,2.03
2022-09-29T16:02:05.400Z,2.05
2022-09-29T16:06:25.585Z,2.20
2022-09-29T16:10:50.330Z,1.73
2022-09-29T16:15:07.090Z,1.92
2022-09-29T16:19:31.247Z,1.67
2022-09-29T16:24:05.695Z,2.10
2022-09-29T16:28:29.626Z,1.90
2022-09-29T16:32:45.756Z,2.70
2022-09-29T16:37:06.347Z,2.83
2022-09-29T16:41:28.366Z,3.58
2022-09-29T16:45:47.862Z,2.92
2022-09-29T16:50:14.385Z,2.00
2022-09-29T16:54:33.252Z,2.70
2022-09-29T16:59:04.772Z,2.30
2022-09-29T17:03:20.946Z,2.25
2022-09-29T17:07:42.039Z,2.10
2022-09-29T17:11:59.997Z,1.70
2022-09-29T17:16:21.808Z,2.05
2022-09-29T17:20:39.229Z,3.17
2022-09-29T17:24:55.728Z,3.40
2022-09-29T17:29:12.253Z,2.95
2022-09-29T17:33:28.364Z,3.87
2022-09-29T17:37:46.821Z,3.80
2022-09-29T17:42:02.955Z,3.10
2022-09-29T17:46:19.391Z,2.58
2022-09-29T17:50:40.958Z,2.20
2022-09-29T17:54:57.058Z,3.40
2022-09-29T17:59:14.440Z,1.98
2022-09-29T18:03:30.599Z,2.65
2022-09-29T18:07:47.011Z,1.92
2022-09-29T18:12:03.187Z,1.85
2022-09-29T18:16:23.068Z,1.90
2022-09-29T18:20:40.595Z,1.80
2022-09-29T18:24:56.906Z,1.95
2022-09-29T18:29:17.173Z,2.15
2022-09-29T18:33:34.948Z,1.92
2022-09-29T18:37:51.651Z,1.85
2022-09-29T18:42:08.907Z,1.98
2022-09-29T18:46:25.124Z,1.73
2022-09-29T18:50:49.311Z,2.45
2022-09-29T18:55:06.470Z,2.40
2022-09-29T18:59:22.838Z,2.17
2022-09-29T19:03:40.932Z,2.25
2022-09-29T19:07:59.752Z,2.15
2022-09-29T19:12:15.810Z,2.03
2022-09-29T19:16:34.294Z,2.28
2022-09-29T19:20:58.623Z,2.35
2022-09-29T19:25:18.209Z,2.00
2022-09-29T19:29:34.344Z,2.28
2022-09-29T19:33:51.146Z,2.28
2022-09-29T19:38:07.217Z,2.08
2022-09-29T19:42:23.498Z,2.15
2022-09-29T19:46:39.575Z,2.50
2022-09-29T19:51:17.856Z,3.00
2022-09-29T19:55:39.114Z,2.35
2022-09-29T19:59:55.127Z,2.12
2022-09-29T20:04:14.923Z,2.10
2022-09-29T20:08:31.152Z,2.47
2022-09-29T20:12:47.199Z,2.00
2022-09-29T20:17:03.228Z,1.90
2022-09-29T20:21:19.404Z,3.20
2022-09-29T20:25:35.389Z,3.12
2022-09-29T20:29:51.390Z,3.55
2022-09-29T20:34:08.093Z,2.42
2022-09-29T20:38:24.252Z,1.77
2022-09-29T20:42:42.109Z,1.70
2022-09-29T20:46:58.819Z,2.90
2022-09-29T20:51:16.215Z,2.05
2022-09-29T20:55:32.316Z,2.37
2022-09-29T20:59:48.404Z,2.78
2022-09-29T21:04:07.929Z,2.22
2022-09-29T21:08:23.959Z,2.20
2022-09-29T21:12:40.111Z,2.80
2022-09-29T21:16:56.476Z,3.05
2022-09-29T21:21:12.770Z,3.10
2022-09-29T21:25:29.092Z,3.22
2022-09-29T21:29:45.149Z,3.45
2022-09-29T21:34:03.418Z,3.62
2022-09-29T21:38:19.390Z,2.50
2022-09-29T21:42:35.357Z,2.72
2022-09-29T21:46:51.544Z,2.35
2022-09-29T21:51:10.577Z,2.40
2022-09-29T21:55:26.871Z,2.70
2022-09-29T21:59:42.831Z,2.50
2022-09-29T22:03:58.995Z,2.20
2022-09-29T22:08:14.962Z,2.45
2022-09-29T22:12:31.049Z,1.98
2022-09-29T22:16:47.160Z,2.55
2022-09-29T22:21:05.172Z,2.25
2022-09-29T22:25:21.244Z,2.10
2022-09-29T22:29:37.193Z,2.17
2022-09-29T22:33:58.440Z,1.87
2022-09-29T22:38:14.442Z,2.08
2022-09-29T22:42:30.393Z,2.28
2022-09-29T22:46:46.567Z,1.90
2022-09-29T22:51:04.112Z,1.73
2022-09-29T22:55:20.144Z,1.90
2022-09-29T22:59:36.239Z,2.03
2022-09-29T23:03:52.290Z,1.98
2022-09-29T23:08:08.683Z,2.08
2022-09-29T23:12:28.768Z,2.40
2022-09-29T23:16:44.895Z,1.98
2022-09-29T23:21:06.011Z,2.45
2022-09-29T23:25:25.186Z,3.20
2022-09-29T23:29:41.254Z,2.62
2022-09-29T23:34:00.825Z,2.45
2022-09-29T23:38:35.749Z,2.72
2022-09-29T23:42:52.227Z,2.30
2022-09-29T23:47:08.622Z,2.83
2022-09-29T23:51:24.746Z,2.80
2022-09-29T23:55:41.175Z,2.60
2022-09-29T23:59:57.229Z,2.90
